Russell, North Dakota
Current Conditions -  °F | °C
As of 4:38 PM on Friday 28 Nov 2014 (Local Time) from KMIB Reporting Station
Overcast Overcast  
Wind Chill: -4°   Ceiling: 10000
Heat Index: 12°   Visibility: 10mi
Dew Point:   Wind: 16mph
Humidity: 85%   Direction: 130°SE
Pressure: 29.54"   Gusts: NA
Location:  48.6879°N, 101.011°W
Report Text: KMIB 282238Z AUTO 13014KT 10SM SCT005 OVC100 M11/M13 A2954 RMK AO2 VIS 1/4 RWY29 SNB2211E2220
Loading
Personal Weather Stations






























Interactive Weather Map New forecast layout! Learn more

10-Day Weather Forecast

Advertisements
Track Severe Weather on mobile